createdAt,value
2022-12-23T00:01:26.941Z,22.48
2022-12-23T00:03:56.797Z,24.65
2022-12-23T00:06:23.525Z,26.60
2022-12-23T00:08:50.170Z,26.42
2022-12-23T00:11:18.527Z,19.63
2022-12-23T00:14:03.966Z,23.92
2022-12-23T00:16:30.705Z,25.13
2022-12-23T00:18:57.435Z,31.10
2022-12-23T00:21:24.353Z,24.33
2022-12-23T00:23:51.506Z,29.40
2022-12-23T00:26:19.877Z,25.50
2022-12-23T00:28:46.580Z,27.58
2022-12-23T00:31:13.747Z,25.70
2022-12-23T00:33:41.794Z,23.65
2022-12-23T00:36:28.200Z,23.67
2022-12-23T00:39:16.071Z,21.48
2022-12-23T00:42:01.724Z,26.17
2022-12-23T00:44:28.427Z,24.45
2022-12-23T00:46:55.093Z,28.15
2022-12-23T00:49:42.048Z,18.00
2022-12-23T00:52:12.987Z,19.30
2022-12-23T00:54:40.022Z,21.65
2022-12-23T00:57:06.937Z,23.42
2022-12-23T00:59:35.789Z,28.20
2022-12-23T01:02:21.321Z,18.23
2022-12-23T01:05:06.537Z,24.55
2022-12-23T01:07:33.276Z,23.10
2022-12-23T01:09:59.867Z,21.63
2022-12-23T01:12:26.668Z,23.25
2022-12-23T01:14:53.200Z,27.25
2022-12-23T01:17:20.083Z,20.88
2022-12-23T01:19:47.136Z,15.38
2022-12-23T01:22:13.819Z,20.23
2022-12-23T01:24:40.330Z,18.55
2022-12-23T01:27:07.006Z,29.42
2022-12-23T01:29:33.498Z,14.73
2022-12-23T01:32:00.339Z,24.55
2022-12-23T01:34:32.508Z,20.17
2022-12-23T01:37:02.920Z,28.25
2022-12-23T01:39:29.389Z,15.52
2022-12-23T01:42:14.508Z,22.45
2022-12-23T01:45:02.772Z,22.65
2022-12-23T01:47:47.895Z,21.08
2022-12-23T01:50:23.281Z,24.00
2022-12-23T01:53:04.598Z,24.88
2022-12-23T01:55:34.997Z,22.95
2022-12-23T01:58:08.387Z,25.02
2022-12-23T02:00:57.315Z,24.42
2022-12-23T02:03:42.679Z,21.30
2022-12-23T02:06:47.687Z,24.45
2022-12-23T02:09:19.586Z,26.88
2022-12-23T02:12:05.069Z,22.17
2022-12-23T02:14:50.420Z,20.00
2022-12-23T02:20:02.207Z,20.35
2022-12-23T02:22:28.838Z,24.35
2022-12-23T02:24:58.400Z,19.25
2022-12-23T02:27:27.305Z,20.63
2022-12-23T02:30:03.018Z,26.27
2022-12-23T02:32:44.581Z,17.02
2022-12-23T02:35:13.671Z,25.92
2022-12-23T02:37:43.267Z,16.25
2022-12-23T02:40:32.989Z,25.45
2022-12-23T02:43:09.145Z,21.90
2022-12-23T02:45:39.151Z,22.73
2022-12-23T02:48:09.001Z,18.65
2022-12-23T02:50:37.948Z,18.25
2022-12-23T02:53:10.124Z,27.38
2022-12-23T02:55:38.287Z,27.75
2022-12-23T02:58:07.739Z,19.35
2022-12-23T03:00:35.739Z,24.67
2022-12-23T03:03:02.845Z,14.77
2022-12-23T03:05:32.801Z,19.23
2022-12-23T03:08:02.734Z,21.45
2022-12-23T03:10:32.532Z,23.58
2022-12-23T03:13:17.909Z,18.27
2022-12-23T03:16:04.190Z,19.92
2022-12-23T03:18:38.187Z,19.27
2022-12-23T03:21:04.835Z,14.97
2022-12-23T03:23:37.427Z,16.05
2022-12-23T03:26:04.241Z,23.17
2022-12-23T03:28:34.564Z,19.42
2022-12-23T03:31:02.664Z,18.98
2022-12-23T03:33:31.811Z,19.70
2022-12-23T03:36:01.324Z,18.05
2022-12-23T03:38:28.752Z,17.25
2022-12-23T03:40:58.615Z,18.80
2022-12-23T03:43:27.159Z,19.60
2022-12-23T03:45:56.665Z,17.10
2022-12-23T03:48:26.930Z,19.58
2022-12-23T03:50:56.853Z,17.52
2022-12-23T03:53:30.037Z,17.77
2022-12-23T03:56:01.499Z,13.68
2022-12-23T03:58:40.246Z,22.00
2022-12-23T04:01:13.172Z,16.40
2022-12-23T04:03:39.767Z,19.77
2022-12-23T04:06:10.643Z,18.77
2022-12-23T04:08:38.208Z,26.92
2022-12-23T04:11:05.176Z,24.52
2022-12-23T04:13:32.251Z,20.77
2022-12-23T04:15:59.723Z,21.73
2022-12-23T04:18:26.502Z,18.95
2022-12-23T04:20:53.262Z,20.23
2022-12-23T04:23:19.860Z,18.85
2022-12-23T04:25:46.582Z,21.45
2022-12-23T04:28:13.402Z,20.58
2022-12-23T04:30:39.899Z,15.80
2022-12-23T04:33:06.680Z,16.65
2022-12-23T04:35:33.183Z,14.70
2022-12-23T04:38:00.485Z,15.07
2022-12-23T04:40:27.054Z,17.35
2022-12-23T04:42:53.879Z,13.20
2022-12-23T04:45:20.616Z,16.67
2022-12-23T04:47:47.386Z,17.98
2022-12-23T04:50:14.981Z,15.43
2022-12-23T04:52:42.116Z,15.68
2022-12-23T04:55:09.341Z,18.88
2022-12-23T04:57:36.168Z,15.82
2022-12-23T05:00:02.911Z,17.70
2022-12-23T05:02:29.613Z,16.45
2022-12-23T05:04:56.648Z,19.63
2022-12-23T05:07:23.240Z,23.00
2022-12-23T05:09:49.893Z,19.50
2022-12-23T05:12:16.638Z,18.23
2022-12-23T05:14:43.201Z,18.88
2022-12-23T05:17:09.905Z,15.82
2022-12-23T05:19:36.583Z,21.33
2022-12-23T05:22:03.577Z,14.82
2022-12-23T05:24:30.216Z,17.42
2022-12-23T05:27:00.086Z,22.90
2022-12-23T05:29:27.358Z,17.08
2022-12-23T05:31:54.202Z,16.77
2022-12-23T05:34:21.590Z,17.52
2022-12-23T05:36:48.717Z,17.20
2022-12-23T05:39:15.290Z,22.90
2022-12-23T05:41:42.001Z,25.98
2022-12-23T05:44:08.673Z,18.58
2022-12-23T05:46:35.364Z,18.52
2022-12-23T05:49:02.118Z,14.10
2022-12-23T05:51:28.972Z,20.85
2022-12-23T05:53:55.570Z,19.02
2022-12-23T05:56:22.256Z,13.43
2022-12-23T05:58:49.788Z,17.25
2022-12-23T06:01:16.672Z,15.48
2022-12-23T06:03:43.617Z,17.92
2022-12-23T06:06:10.405Z,14.23
2022-12-23T06:08:36.998Z,16.42
2022-12-23T06:11:06.938Z,16.38
2022-12-23T06:13:33.947Z,14.98
2022-12-23T06:16:00.561Z,18.67
2022-12-23T06:18:31.348Z,16.23
2022-12-23T06:20:58.263Z,15.20
2022-12-23T06:23:32.932Z,15.30
2022-12-23T06:26:00.736Z,15.75
2022-12-23T06:28:28.185Z,17.83
2022-12-23T06:30:55.976Z,14.10
2022-12-23T06:33:23.155Z,15.60
2022-12-23T06:35:50.100Z,15.57
2022-12-23T06:38:16.761Z,15.68
2022-12-23T06:40:43.626Z,14.40
2022-12-23T06:43:11.765Z,15.45
2022-12-23T06:45:38.568Z,16.08
2022-12-23T06:48:05.732Z,12.52
2022-12-23T06:50:32.651Z,14.45
2022-12-23T06:52:59.316Z,14.68
2022-12-23T06:55:26.077Z,14.82
2022-12-23T06:57:52.910Z,12.70
2022-12-23T07:00:20.507Z,9.98
2022-12-23T07:02:47.320Z,12.77
2022-12-23T07:05:14.160Z,12.63
2022-12-23T07:07:40.793Z,14.02
2022-12-23T07:10:07.982Z,11.15
2022-12-23T07:12:34.665Z,14.07
2022-12-23T07:15:01.683Z,8.88
2022-12-23T07:17:28.399Z,10.70
2022-12-23T07:19:55.135Z,10.52
2022-12-23T07:22:22.561Z,9.35
2022-12-23T07:24:52.169Z,13.63
2022-12-23T07:27:19.051Z,15.27
2022-12-23T07:29:45.948Z,14.35
2022-12-23T07:32:13.457Z,10.88
2022-12-23T07:34:40.202Z,10.43
2022-12-23T07:37:06.893Z,14.13
2022-12-23T07:39:34.746Z,12.95
2022-12-23T07:42:33.717Z,9.43
2022-12-23T07:44:48.155Z,13.55
2022-12-23T07:47:15.773Z,13.77
2022-12-23T07:49:42.407Z,14.20
2022-12-23T07:52:09.079Z,11.13
2022-12-23T07:54:35.671Z,16.05
2022-12-23T07:57:02.182Z,10.95
2022-12-23T07:59:28.957Z,9.55
2022-12-23T08:01:57.342Z,12.68
2022-12-23T08:04:24.175Z,9.38
2022-12-23T08:06:51.004Z,12.05
2022-12-23T08:09:17.651Z,13.50
2022-12-23T08:11:44.702Z,11.30
2022-12-23T08:14:11.502Z,8.93
2022-12-23T08:16:43.620Z,9.98
2022-12-23T08:19:10.903Z,11.05
2022-12-23T08:21:37.596Z,12.77
2022-12-23T08:24:04.414Z,8.80
2022-12-23T08:31:33.375Z,13.05
2022-12-23T08:34:00.912Z,12.60
2022-12-23T08:36:28.862Z,13.52
2022-12-23T08:39:04.511Z,10.55
2022-12-23T08:42:14.338Z,7.65
2022-12-23T08:47:46.386Z,13.07
2022-12-23T08:50:45.866Z,11.80
2022-12-23T08:53:13.414Z,12.30
2022-12-23T08:55:44.989Z,13.40
2022-12-23T08:58:13.106Z,13.07
2022-12-23T09:00:41.553Z,13.88
2022-12-23T09:03:12.750Z,12.82
2022-12-23T09:05:41.862Z,12.40
2022-12-23T09:11:02.622Z,13.88
2022-12-23T09:13:35.187Z,15.50
2022-12-23T09:16:03.595Z,15.45
2022-12-23T09:18:30.438Z,16.02
2022-12-23T09:20:58.570Z,17.27
2022-12-23T09:23:25.555Z,16.10
2022-12-23T09:25:54.113Z,16.73
2022-12-23T09:28:21.164Z,16.25
2022-12-23T09:30:48.015Z,14.88
2022-12-23T09:33:15.186Z,18.38
2022-12-23T09:35:42.095Z,19.75
2022-12-23T09:38:08.837Z,9.80
2022-12-23T09:40:36.773Z,13.38
2022-12-23T09:43:03.743Z,11.93
2022-12-23T09:45:41.976Z,14.20
2022-12-23T09:48:20.881Z,15.65
2022-12-23T09:54:55.820Z,15.68
2022-12-23T10:06:25.916Z,12.10
2022-12-23T10:08:54.758Z,16.20
2022-12-23T10:11:34.902Z,16.08
2022-12-23T10:14:20.975Z,14.00
2022-12-23T10:17:08.344Z,13.45
2022-12-23T10:19:42.071Z,13.48
2022-12-23T10:22:23.473Z,12.90
2022-12-23T10:24:50.603Z,13.63
2022-12-23T10:27:17.134Z,14.10
2022-12-23T10:29:44.831Z,12.55
2022-12-23T10:32:34.582Z,14.95
2022-12-23T10:35:06.734Z,12.02
2022-12-23T10:37:34.132Z,12.63
2022-12-23T10:40:20.956Z,17.50
2022-12-23T10:43:08.492Z,15.05
2022-12-23T10:46:11.138Z,18.60
2022-12-23T10:48:56.398Z,14.52
2022-12-23T10:51:30.773Z,11.65
2022-12-23T10:54:09.668Z,14.57
2022-12-23T10:56:36.841Z,17.25
2022-12-23T10:59:03.537Z,14.02
2022-12-23T11:01:31.419Z,15.15
2022-12-23T11:08:28.702Z,17.13
2022-12-23T11:10:56.952Z,15.75
2022-12-23T11:13:35.300Z,23.48
2022-12-23T11:16:34.307Z,27.90
2022-12-23T11:19:05.800Z,29.33
2022-12-23T11:21:33.516Z,28.95
2022-12-23T11:24:07.696Z,27.88
2022-12-23T11:26:34.958Z,23.67
2022-12-23T11:29:05.766Z,21.52
2022-12-23T11:31:35.640Z,24.13
2022-12-23T11:34:20.676Z,30.85
2022-12-23T11:37:21.700Z,21.77
2022-12-23T11:39:48.444Z,23.88
2022-12-23T11:42:19.059Z,26.40
2022-12-23T11:44:48.176Z,18.08
2022-12-23T11:47:24.071Z,25.00
2022-12-23T11:49:53.658Z,21.73
2022-12-23T11:52:27.803Z,22.38
2022-12-23T11:55:17.218Z,18.52
2022-12-23T11:57:46.513Z,19.40
2022-12-23T12:00:20.601Z,23.63
2022-12-23T12:02:56.809Z,13.65
2022-12-23T12:05:32.621Z,18.83
2022-12-23T12:08:31.576Z,17.65
2022-12-23T12:11:12.877Z,12.52
2022-12-23T12:13:45.536Z,13.95
2022-12-23T12:16:30.598Z,12.27
2022-12-23T12:19:29.867Z,18.15
2022-12-23T12:21:59.588Z,17.80
2022-12-23T12:24:32.107Z,25.67
2022-12-23T12:27:17.462Z,22.13
2022-12-23T12:29:52.654Z,16.70
2022-12-23T12:32:39.743Z,17.33
2022-12-23T12:35:09.175Z,19.08
2022-12-23T12:38:03.065Z,13.10
2022-12-23T12:40:36.918Z,12.80
2022-12-23T12:43:15.575Z,11.57
2022-12-23T12:45:53.196Z,9.50
2022-12-23T12:48:29.227Z,12.70
2022-12-23T12:51:24.097Z,12.27
2022-12-23T12:54:04.985Z,12.48
2022-12-23T12:56:42.758Z,10.52
2022-12-23T12:59:30.746Z,8.90
2022-12-23T13:02:08.167Z,8.85
2022-12-23T13:04:43.664Z,8.35
2022-12-23T13:07:13.371Z,9.25
2022-12-23T13:09:45.909Z,5.68
2022-12-23T13:12:17.115Z,6.78
2022-12-23T13:14:44.113Z,8.05
2022-12-23T13:17:30.050Z,8.98
2022-12-23T13:20:10.165Z,8.40
2022-12-23T13:22:37.310Z,6.90
2022-12-23T13:25:09.437Z,9.60
2022-12-23T13:27:36.218Z,7.50
2022-12-23T13:30:13.373Z,12.15
2022-12-23T13:32:51.956Z,16.05
2022-12-23T13:35:40.991Z,18.63
2022-12-23T13:38:19.916Z,13.80
2022-12-23T13:41:05.969Z,12.57
2022-12-23T13:44:08.857Z,22.38
2022-12-23T13:47:02.959Z,20.27
2022-12-23T13:57:35.829Z,23.38
2022-12-23T14:00:18.582Z,17.67
2022-12-23T14:02:52.462Z,22.05
2022-12-23T14:05:31.746Z,34.40
2022-12-23T14:08:21.880Z,23.25
2022-12-23T14:11:04.972Z,20.98
2022-12-23T14:13:48.476Z,30.58
2022-12-23T14:16:29.435Z,23.30
2022-12-23T14:19:10.012Z,27.23
2022-12-23T14:21:48.671Z,26.10
2022-12-23T14:24:34.220Z,35.35
2022-12-23T14:27:00.991Z,26.92
2022-12-23T14:29:27.559Z,25.63
2022-12-23T14:31:55.339Z,35.95
2022-12-23T14:34:25.947Z,37.22
2022-12-23T14:37:11.511Z,36.72
2022-12-23T14:39:38.282Z,33.00
2022-12-23T14:42:08.237Z,42.65
2022-12-23T14:44:35.745Z,42.33
2022-12-23T14:47:03.475Z,44.05
2022-12-23T14:49:41.470Z,44.15
2022-12-23T14:52:28.015Z,50.42
2022-12-23T14:55:28.455Z,47.63
2022-12-23T14:57:46.655Z,51.60
2022-12-23T15:00:13.597Z,61.38
2022-12-23T15:02:41.668Z,54.42
2022-12-23T15:05:09.263Z,53.97
2022-12-23T15:07:37.694Z,55.97
2022-12-23T15:10:06.562Z,56.55
2022-12-23T15:12:40.636Z,58.17
2022-12-23T15:15:21.318Z,51.90
2022-12-23T15:17:48.480Z,53.35
2022-12-23T15:20:25.615Z,43.40
2022-12-23T15:22:53.879Z,56.15
2022-12-23T15:25:25.615Z,60.03
2022-12-23T15:28:00.896Z,47.63
2022-12-23T15:30:30.322Z,57.08
2022-12-23T15:33:01.762Z,42.28
2022-12-23T15:35:33.533Z,46.53
2022-12-23T15:38:01.080Z,49.50
2022-12-23T15:44:45.531Z,39.60
2022-12-23T15:47:34.911Z,46.22
2022-12-23T15:50:02.289Z,60.22
2022-12-23T15:52:30.192Z,48.75
2022-12-23T15:54:58.838Z,44.03
2022-12-23T15:57:29.611Z,44.78
2022-12-23T15:59:58.555Z,42.30
2022-12-23T16:02:59.043Z,60.25
2022-12-23T16:05:29.844Z,49.38
2022-12-23T16:08:32.003Z,54.03
2022-12-23T16:11:18.913Z,44.97
2022-12-23T16:13:58.743Z,43.15
2022-12-23T16:16:33.847Z,44.03
2022-12-23T16:19:00.998Z,36.30
2022-12-23T16:21:29.664Z,47.00
2022-12-23T16:23:56.897Z,37.90
2022-12-23T16:26:23.479Z,46.88
2022-12-23T16:28:54.999Z,40.65
2022-12-23T16:31:22.060Z,41.67
2022-12-23T16:33:55.731Z,43.63
2022-12-23T16:36:23.924Z,39.78
2022-12-23T16:54:29.091Z,47.90
2022-12-23T17:22:54.727Z,53.83
2022-12-23T17:25:26.339Z,42.08
2022-12-23T17:27:53.734Z,45.30
2022-12-23T17:30:21.623Z,49.75
2022-12-23T17:32:54.445Z,47.92
2022-12-23T17:35:21.756Z,50.97
2022-12-23T17:37:48.217Z,43.28
2022-12-23T17:40:15.690Z,56.33
2022-12-23T17:42:42.359Z,33.95
2022-12-23T17:45:26.177Z,38.80
2022-12-23T17:47:53.305Z,36.30
2022-12-23T17:50:20.889Z,34.33
2022-12-23T17:52:47.850Z,25.48
2022-12-23T17:55:21.950Z,38.75
2022-12-23T17:57:51.105Z,39.15
2022-12-23T18:00:26.561Z,27.13
2022-12-23T18:02:59.150Z,32.33
2022-12-23T18:05:27.224Z,37.47
2022-12-23T18:07:54.713Z,28.02
2022-12-23T18:10:24.434Z,33.55
2022-12-23T18:12:55.571Z,33.53
2022-12-23T18:15:24.163Z,29.92
2022-12-23T18:17:51.148Z,29.13
2022-12-23T18:20:19.602Z,32.08
2022-12-23T18:22:46.939Z,35.80
2022-12-23T18:25:15.822Z,23.77
2022-12-23T18:27:42.320Z,30.08
2022-12-23T18:30:09.304Z,33.83
2022-12-23T18:32:36.360Z,33.67
2022-12-23T18:35:03.057Z,36.08
2022-12-23T18:37:31.473Z,35.17
2022-12-23T18:39:58.124Z,31.00
2022-12-23T18:42:24.661Z,28.73
2022-12-23T18:44:51.376Z,40.70
2022-12-23T18:47:19.249Z,38.47
2022-12-23T18:49:46.043Z,43.03
2022-12-23T18:52:13.586Z,42.80
2022-12-23T18:54:40.309Z,36.60
2022-12-23T18:57:07.338Z,36.22
2022-12-23T18:59:37.611Z,38.95
2022-12-23T19:02:04.897Z,37.15
2022-12-23T19:04:31.743Z,47.42
2022-12-23T19:06:58.463Z,42.10
2022-12-23T19:09:25.409Z,36.05
2022-12-23T19:11:53.118Z,35.28
2022-12-23T19:14:19.728Z,36.17
2022-12-23T19:16:51.565Z,37.67
2022-12-23T19:19:19.571Z,34.53
2022-12-23T19:21:46.250Z,45.40
2022-12-23T19:24:13.152Z,32.47
2022-12-23T19:26:39.676Z,44.00
2022-12-23T19:29:06.262Z,38.70
2022-12-23T19:31:34.241Z,36.45
2022-12-23T19:34:01.497Z,29.73
2022-12-23T19:36:28.238Z,32.67
2022-12-23T19:38:55.784Z,34.05
2022-12-23T19:41:22.415Z,48.50
2022-12-23T19:43:48.983Z,38.75
2022-12-23T19:46:16.386Z,43.58
2022-12-23T19:48:43.618Z,32.75
2022-12-23T19:51:11.475Z,42.53
2022-12-23T19:53:38.804Z,44.35
2022-12-23T19:56:11.690Z,36.65
2022-12-23T19:58:40.401Z,32.22
2022-12-23T20:01:08.717Z,35.88
2022-12-23T20:03:35.889Z,36.83
2022-12-23T20:06:04.238Z,43.58
2022-12-23T20:08:31.347Z,39.63
2022-12-23T20:11:05.138Z,37.33
2022-12-23T20:13:31.900Z,38.33
2022-12-23T20:15:59.366Z,42.17
2022-12-23T20:18:28.206Z,29.15
2022-12-23T20:20:54.883Z,47.28
2022-12-23T20:23:22.782Z,40.33
2022-12-23T20:25:52.006Z,39.85
2022-12-23T20:28:18.910Z,41.88
2022-12-23T20:30:45.959Z,39.05
2022-12-23T20:33:12.533Z,48.00
2022-12-23T20:35:39.304Z,29.20
2022-12-23T20:38:06.052Z,39.97
2022-12-23T20:40:32.650Z,37.97
2022-12-23T20:42:59.522Z,46.75
2022-12-23T20:45:26.269Z,41.85
2022-12-23T20:47:54.144Z,39.42
2022-12-23T20:50:21.375Z,36.47
2022-12-23T20:52:48.146Z,34.90
2022-12-23T20:55:14.921Z,31.63
2022-12-23T20:57:44.146Z,52.83
2022-12-23T21:00:11.007Z,43.95
2022-12-23T21:02:37.793Z,39.13
2022-12-23T21:05:04.501Z,40.83
2022-12-23T21:07:31.137Z,42.42
2022-12-23T21:09:57.773Z,41.17
2022-12-23T21:12:24.713Z,38.13
2022-12-23T21:14:51.398Z,35.47
2022-12-23T21:17:18.145Z,47.35
2022-12-23T21:28:06.871Z,34.83
2022-12-23T21:34:20.766Z,42.92
2022-12-23T21:36:47.448Z,32.15
2022-12-23T21:52:27.830Z,48.63
2022-12-23T21:54:54.829Z,36.03
2022-12-23T21:57:21.306Z,46.97
2022-12-23T21:59:47.896Z,53.00
2022-12-23T22:02:17.593Z,43.88
2022-12-23T22:04:44.302Z,41.40
2022-12-23T22:07:10.780Z,35.10
2022-12-23T22:09:37.450Z,49.65
2022-12-23T22:12:05.201Z,37.67
2022-12-23T22:14:31.841Z,48.53
2022-12-23T22:16:58.582Z,55.30
2022-12-23T22:19:25.235Z,47.53
2022-12-23T22:21:51.711Z,48.33
2022-12-23T22:24:18.377Z,44.38
2022-12-23T22:26:44.854Z,42.15
2022-12-23T22:29:11.808Z,42.30
2022-12-23T22:31:38.570Z,39.47
2022-12-23T22:34:05.762Z,43.75
2022-12-23T22:36:32.628Z,34.08
2022-12-23T22:39:00.523Z,35.45
2022-12-23T22:41:28.116Z,34.45
2022-12-23T22:43:54.982Z,58.00
2022-12-23T22:46:21.769Z,36.03
2022-12-23T22:48:48.517Z,29.48
2022-12-23T22:51:16.955Z,37.30
2022-12-23T22:53:44.123Z,30.42
2022-12-23T22:56:11.730Z,34.47
2022-12-23T22:58:38.482Z,35.85
2022-12-23T23:01:05.694Z,34.20
2022-12-23T23:04:10.256Z,34.55
2022-12-23T23:06:39.230Z,37.95
2022-12-23T23:09:12.056Z,32.10
2022-12-23T23:11:39.831Z,40.00
2022-12-23T23:14:09.423Z,37.15
2022-12-23T23:16:39.968Z,33.53
2022-12-23T23:19:09.568Z,34.72
2022-12-23T23:21:38.588Z,46.10
2022-12-23T23:24:06.304Z,40.45
2022-12-23T23:26:33.601Z,44.17
2022-12-23T23:29:00.867Z,35.58
2022-12-23T23:31:44.058Z,36.20
2022-12-23T23:34:12.044Z,34.47
2022-12-23T23:36:38.933Z,34.65
2022-12-23T23:39:08.304Z,36.25
2022-12-23T23:41:36.177Z,31.00
2022-12-23T23:44:05.769Z,35.45
2022-12-23T23:46:35.447Z,39.38
2022-12-23T23:49:12.600Z,46.25
2022-12-23T23:52:33.546Z,44.30
2022-12-23T23:56:01.799Z,42.78
